Pagrindinis puslapis
METAR-TAF:

METAR-TAF

Oro uostai :

Islamabadas, Pakistanas

platuma: 33-32-57N, ilguma: 072-49-32E, Aukštis: 537 m

Dabartinis oras

Ataskaita buvo paskelbta 22 minutes, ne 08:55 UTC
Vėjas 8 kt iš Šiaurės Vakarų
Temperatūra 20°C
Drėgmė 28%
Slėgis 1015 hPa
Matomumas: 5000 m
dūmai

METAR: OPIS 190855Z 31008KT 5000 FU NSC 20/01 Q1015 NOSIG

Laikas: 14:17 (09:17 UTC)

Prognozė

Ataskaita buvo paskelbta 5 valandos ir 47 minutes, ne 03:30 UTC
Prognozė galioja nuo 19 metu 06 UTC su 20 metu 12 UTC
Vėjas 6 kt iš Pietvakarių
Matomumas: 2500 m
dūmai, rūkana
Laikinai
nuo 19 metu 22 UTC su 20 metu 03 UTC
Vėjas 3 kt nuo kintamojo kryptimis
Matomumas: 0800 m
Sekli rūkas
Tapsmas
nuo 20 metu 03 UTC su 20 metu 05 UTC
Vėjas 8 kt iš Vakarų
Matomumas: 2500 m
dūmai
Laikinai
nuo 20 metu 07 UTC su 20 metu 12 UTC
Vėjas 15 kt iš Šiaurės Vakarų su gūsio iki 25 kt
Matomumas: 6000 m

TAF: OPIS 190330Z 1906/2012 23006KT 4000 FU NSC 1918/1922 2500 BR TEMPO 1922/2003 VRB03KT 0800 MIFG BECMG 2003/2005 27008KT 2500 FU TEMPO 2007/2012 31015G25KT 6000

Orai ataskaitas ir orų prognozės (METAR, TAF).

turimą stotys yra geltonos ir raudonos taškus žemėlapyje.

Perkelti pele per norėdami pamatyti stoties vardą.

Tada spustelėkite, norėdami matyti oro stebėjimo ir prognozės.

Norėdami pakeisti žemėlapį: spustelėkite ant žalios mygtukų su juodo kryžiaus žemyn,; žalią mygtuką su brūkšneliu, jei norite nutolinti; arba žalių rodyklių gretimoms žemėlapius.


METAR-TAF: